createdAt,value
2023-04-15T00:03:45.819Z,84.36
2023-04-15T00:07:43.683Z,84.69
2023-04-15T00:11:41.654Z,84.94
2023-04-15T00:15:39.728Z,85.05
2023-04-15T00:19:38.739Z,85.49
2023-04-15T00:23:38.627Z,85.98
2023-04-15T00:27:36.602Z,86.27
2023-04-15T00:31:34.662Z,86.36
2023-04-15T00:35:32.725Z,86.74
2023-04-15T00:39:30.685Z,87.19
2023-04-15T00:43:28.603Z,87.60
2023-04-15T00:47:26.567Z,87.86
2023-04-15T00:51:24.622Z,88.20
2023-04-15T00:55:23.589Z,88.36
2023-04-15T00:59:21.581Z,88.32
2023-04-15T01:03:19.721Z,88.56
2023-04-15T01:07:17.546Z,88.65
2023-04-15T01:11:16.542Z,88.85
2023-04-15T01:15:14.801Z,88.94
2023-04-15T01:19:12.572Z,88.93
2023-04-15T01:23:10.519Z,88.81
2023-04-15T01:27:08.576Z,88.94
2023-04-15T01:31:29.546Z,88.87
2023-04-15T01:35:27.679Z,88.88
2023-04-15T01:39:25.550Z,89.02
2023-04-15T01:43:23.596Z,89.01
2023-04-15T01:47:21.498Z,89.12
2023-04-15T01:51:19.518Z,89.14
2023-04-15T01:55:17.490Z,89.02
2023-04-15T01:59:15.531Z,89.10
2023-04-15T02:03:13.645Z,89.09
2023-04-15T02:07:11.510Z,89.08
2023-04-15T02:11:10.617Z,89.02
2023-04-15T02:15:08.491Z,89.07
2023-04-15T02:19:06.451Z,88.95
2023-04-15T02:23:04.506Z,88.77
2023-04-15T02:27:02.479Z,88.87
2023-04-15T02:31:04.485Z,89.03
2023-04-15T02:35:02.419Z,89.08
2023-04-15T02:39:00.795Z,88.98
2023-04-15T02:42:58.459Z,88.99
2023-04-15T02:46:59.455Z,89.00
2023-04-15T02:50:57.425Z,88.95
2023-04-15T02:54:55.454Z,88.68
2023-04-15T02:58:57.417Z,88.84
2023-04-15T03:02:58.623Z,88.72
2023-04-15T03:06:56.406Z,88.64
2023-04-15T03:10:54.410Z,88.41
2023-04-15T03:14:52.407Z,88.44
2023-04-15T03:18:56.429Z,88.57
2023-04-15T03:22:55.424Z,88.56
2023-04-15T03:26:53.464Z,88.20
2023-04-15T03:30:51.402Z,88.43
2023-04-15T03:34:49.381Z,88.69
2023-04-15T03:38:47.357Z,88.35
2023-04-15T03:42:45.406Z,88.41
2023-04-15T03:46:43.458Z,88.83
2023-04-15T03:50:41.383Z,88.93
2023-04-15T03:54:39.472Z,88.78
2023-04-15T03:58:37.343Z,88.94
2023-04-15T04:02:35.538Z,88.83
2023-04-15T04:06:33.401Z,88.72
2023-04-15T04:10:31.382Z,88.89
2023-04-15T04:14:35.350Z,88.79
2023-04-15T04:18:33.412Z,88.75
2023-04-15T04:22:31.336Z,88.81
2023-04-15T04:26:29.335Z,88.87
2023-04-15T04:30:27.362Z,88.68
2023-04-15T04:34:25.331Z,88.73
2023-04-15T04:38:23.377Z,88.86
2023-04-15T04:42:21.454Z,88.90
2023-04-15T04:46:19.380Z,88.92
2023-04-15T04:50:17.337Z,88.93
2023-04-15T04:54:15.397Z,88.90
2023-04-15T04:58:13.384Z,88.86
2023-04-15T05:02:11.428Z,88.94
2023-04-15T05:06:11.358Z,88.75
2023-04-15T05:10:09.363Z,88.95
2023-04-15T05:14:09.384Z,89.02
2023-04-15T05:18:07.239Z,89.12
2023-04-15T05:22:05.260Z,89.15
2023-04-15T05:26:04.337Z,89.05
2023-04-15T05:30:03.217Z,88.96
2023-04-15T05:34:01.358Z,89.13
2023-04-15T05:37:59.206Z,89.14
2023-04-15T05:41:57.233Z,88.99
2023-04-15T05:45:55.225Z,89.00
2023-04-15T05:49:53.221Z,89.07
2023-04-15T05:53:51.176Z,88.97
2023-04-15T05:57:49.205Z,88.86
2023-04-15T06:01:48.338Z,88.86
2023-04-15T06:05:46.232Z,88.82
2023-04-15T06:09:44.263Z,88.67
2023-04-15T06:13:42.237Z,88.39
2023-04-15T06:17:40.189Z,88.10
2023-04-15T06:21:38.232Z,88.02
2023-04-15T06:25:36.181Z,87.99
2023-04-15T06:29:34.162Z,88.01
2023-04-15T06:33:32.149Z,87.93
2023-04-15T06:37:30.213Z,88.03
2023-04-15T06:41:28.171Z,88.08
2023-04-15T06:45:26.193Z,87.96
2023-04-15T06:49:24.131Z,87.94
2023-04-15T06:53:22.219Z,87.96
2023-04-15T06:57:20.151Z,87.97
2023-04-15T07:01:18.150Z,87.86
2023-04-15T07:05:16.144Z,87.68
2023-04-15T07:09:14.129Z,87.33
2023-04-15T07:13:12.127Z,86.81
2023-04-15T07:17:10.175Z,86.52
2023-04-15T07:21:08.062Z,85.84
2023-04-15T07:25:06.157Z,85.54
2023-04-15T07:29:04.288Z,85.44
2023-04-15T07:33:02.218Z,85.48
2023-04-15T07:37:00.124Z,85.41
2023-04-15T07:40:58.196Z,85.19
2023-04-15T07:44:56.164Z,84.80
2023-04-15T07:48:54.149Z,84.05
2023-04-15T07:52:52.121Z,83.06
2023-04-15T07:56:50.097Z,81.82
2023-04-15T08:00:48.017Z,80.65
2023-04-15T08:04:46.306Z,80.46
2023-04-15T08:08:44.060Z,79.37
2023-04-15T08:12:42.117Z,78.17
2023-04-15T08:16:41.120Z,77.67
2023-04-15T08:20:39.101Z,78.06
2023-04-15T08:24:37.074Z,78.05
2023-04-15T08:28:37.205Z,77.63
2023-04-15T08:32:35.162Z,77.43
2023-04-15T08:36:34.041Z,77.04
2023-04-15T08:40:31.995Z,76.50
2023-04-15T08:44:30.019Z,75.92
2023-04-15T08:48:31.008Z,76.40
2023-04-15T08:52:29.016Z,75.05
2023-04-15T08:56:28.021Z,74.46
2023-04-15T09:00:25.998Z,74.42
2023-04-15T09:04:24.964Z,74.86
2023-04-15T09:08:23.000Z,75.16
2023-04-15T09:12:20.969Z,74.83
2023-04-15T09:16:20.074Z,74.40
2023-04-15T09:20:29.986Z,74.42
2023-04-15T09:24:28.042Z,74.18
2023-04-15T09:28:26.959Z,73.34
2023-04-15T09:32:28.124Z,73.34
2023-04-15T09:36:25.983Z,73.42
2023-04-15T09:40:23.964Z,74.02
2023-04-15T09:44:21.947Z,73.86
2023-04-15T09:48:49.019Z,73.85
2023-04-15T09:52:46.934Z,73.83
2023-04-15T09:56:51.937Z,73.52
2023-04-15T10:00:50.008Z,72.30
2023-04-15T10:04:54.951Z,72.68
2023-04-15T10:08:52.997Z,71.95
2023-04-15T10:12:52.918Z,72.06
2023-04-15T10:16:55.964Z,71.40
2023-04-15T10:20:53.943Z,69.62
2023-04-15T10:24:53.893Z,71.04
2023-04-15T10:28:51.935Z,66.34
2023-04-15T10:32:50.862Z,67.43
2023-04-15T10:36:49.025Z,64.42
2023-04-15T10:40:46.896Z,64.62
2023-04-15T10:44:44.917Z,64.88
2023-04-15T10:48:42.808Z,64.11
2023-04-15T10:52:42.892Z,63.95
2023-04-15T10:56:40.838Z,63.59
2023-04-15T11:00:44.839Z,64.77
2023-04-15T11:05:10.860Z,62.90
2023-04-15T11:09:15.818Z,63.67
2023-04-15T11:13:16.958Z,63.65
2023-04-15T11:17:14.858Z,63.50
2023-04-15T11:21:18.807Z,63.69
2023-04-15T11:25:16.831Z,60.76
2023-04-15T11:29:14.786Z,61.27
2023-04-15T11:33:14.809Z,61.30
2023-04-15T11:37:12.809Z,62.53
2023-04-15T11:41:10.905Z,62.93
2023-04-15T11:45:24.853Z,62.27
2023-04-15T11:49:22.832Z,63.52
2023-04-15T11:53:21.804Z,61.88
2023-04-15T11:57:19.813Z,62.62
2023-04-15T12:01:17.802Z,63.44
2023-04-15T12:05:19.825Z,63.20
2023-04-15T12:09:27.759Z,63.81
2023-04-15T12:13:25.905Z,64.85
2023-04-15T12:17:24.774Z,65.04
2023-04-15T12:21:25.750Z,64.61
2023-04-15T12:25:23.762Z,63.72
2023-04-15T12:29:22.779Z,63.11
2023-04-15T12:33:20.754Z,61.15
2023-04-15T12:37:20.780Z,62.62
2023-04-15T12:41:18.738Z,63.15
2023-04-15T12:45:16.727Z,63.81
2023-04-15T12:49:14.758Z,63.96
2023-04-15T12:53:12.751Z,64.57
2023-04-15T12:57:10.754Z,64.11
2023-04-15T13:01:08.732Z,63.43
2023-04-15T13:05:06.695Z,63.36
2023-04-15T13:09:05.838Z,63.01
2023-04-15T13:13:04.718Z,62.60
2023-04-15T13:17:02.776Z,62.76
2023-04-15T13:21:00.767Z,61.46
2023-04-15T13:24:58.749Z,61.36
2023-04-15T13:28:56.728Z,62.65
2023-04-15T13:32:54.809Z,62.74
2023-04-15T13:36:52.683Z,61.18
2023-04-15T13:40:50.771Z,59.78
2023-04-15T13:44:48.665Z,60.78
2023-04-15T13:48:46.738Z,62.03
2023-04-15T13:52:44.707Z,62.73
2023-04-15T13:56:42.784Z,63.87
2023-04-15T14:00:40.761Z,65.39
2023-04-15T14:04:47.752Z,66.72
2023-04-15T14:08:45.727Z,66.84
2023-04-15T14:12:43.813Z,66.71
2023-04-15T14:16:41.719Z,65.53
2023-04-15T14:20:39.681Z,65.01
2023-04-15T14:24:37.603Z,66.61
2023-04-15T14:28:35.704Z,66.99
2023-04-15T14:32:33.620Z,67.62
2023-04-15T14:36:31.622Z,67.94
2023-04-15T14:40:29.659Z,67.26
2023-04-15T14:44:27.594Z,66.76
2023-04-15T14:48:25.609Z,66.11
2023-04-15T14:52:23.634Z,66.07
2023-04-15T14:56:21.590Z,66.71
2023-04-15T15:00:20.625Z,67.66
2023-04-15T15:04:18.668Z,69.00
2023-04-15T15:08:16.589Z,70.48
2023-04-15T15:12:14.582Z,71.54
2023-04-15T15:16:14.453Z,71.69
2023-04-15T15:20:12.562Z,72.01
2023-04-15T15:24:10.629Z,72.35
2023-04-15T15:28:08.688Z,73.15
2023-04-15T15:32:06.598Z,73.80
2023-04-15T15:36:05.539Z,74.42
2023-04-15T15:40:03.576Z,74.86
2023-04-15T15:44:01.557Z,75.63
2023-04-15T15:47:59.659Z,76.30
2023-04-15T15:51:57.556Z,76.76
2023-04-15T15:55:55.543Z,77.39
2023-04-15T16:00:04.761Z,78.06
2023-04-15T16:04:07.657Z,77.80
2023-04-15T16:08:05.517Z,78.04
2023-04-15T16:12:04.797Z,78.38
2023-04-15T16:16:02.508Z,78.80
2023-04-15T16:20:01.407Z,79.18
2023-04-15T16:23:59.537Z,79.30
2023-04-15T16:28:03.015Z,79.21
2023-04-15T16:32:03.492Z,79.21
2023-04-15T16:36:01.525Z,79.87
2023-04-15T16:39:59.463Z,80.34
2023-04-15T16:43:57.528Z,80.80
2023-04-15T16:47:55.535Z,81.16
2023-04-15T16:51:54.628Z,81.51
2023-04-15T16:55:52.488Z,81.74
2023-04-15T16:59:50.594Z,81.17
2023-04-15T17:03:48.576Z,81.63
2023-04-15T17:07:46.437Z,81.64
2023-04-15T17:11:45.538Z,81.77
2023-04-15T17:15:43.520Z,81.89
2023-04-15T17:19:41.491Z,81.69
2023-04-15T17:23:40.478Z,82.29
2023-04-15T17:27:38.496Z,82.25
2023-04-15T17:31:37.540Z,82.51
2023-04-15T17:35:35.428Z,82.86
2023-04-15T17:39:33.524Z,83.05
2023-04-15T17:43:31.501Z,83.21
2023-04-15T17:47:29.468Z,82.72
2023-04-15T17:51:27.463Z,83.06
2023-04-15T17:55:31.490Z,83.11
2023-04-15T17:59:30.339Z,83.21
2023-04-15T18:03:28.695Z,83.54
2023-04-15T18:07:26.377Z,83.72
2023-04-15T18:11:24.428Z,83.83
2023-04-15T18:15:22.340Z,83.98
2023-04-15T18:19:20.350Z,84.18
2023-04-15T18:23:18.324Z,83.98
2023-04-15T18:27:16.392Z,84.18
2023-04-15T18:31:14.350Z,84.33
2023-04-15T18:35:12.503Z,84.54
2023-04-15T18:39:10.332Z,84.51
2023-04-15T18:43:08.357Z,84.15
2023-04-15T18:47:06.347Z,84.77
2023-04-15T18:51:05.312Z,84.76
2023-04-15T18:55:03.407Z,84.70
2023-04-15T18:59:27.900Z,84.60
2023-04-15T19:03:19.408Z,84.57
2023-04-15T19:07:17.295Z,84.88
2023-04-15T19:11:15.409Z,85.04
2023-04-15T19:15:13.280Z,85.26
2023-04-15T19:19:13.276Z,85.45
2023-04-15T19:23:11.356Z,85.56
2023-04-15T19:27:09.369Z,85.62
2023-04-15T19:31:07.355Z,85.61
2023-04-15T19:35:05.295Z,85.62
2023-04-15T19:39:03.530Z,85.62
2023-04-15T19:43:01.284Z,85.87
2023-04-15T19:47:00.389Z,86.05
2023-04-15T19:50:58.253Z,86.06
2023-04-15T19:54:56.288Z,85.89
2023-04-15T19:58:59.239Z,85.84
2023-04-15T20:02:57.479Z,85.60
2023-04-15T20:06:55.221Z,85.69
2023-04-15T20:10:53.303Z,85.69
2023-04-15T20:14:51.198Z,85.86
2023-04-15T20:18:49.239Z,85.87
2023-04-15T20:22:47.216Z,85.96
2023-04-15T20:26:45.297Z,86.09
2023-04-15T20:30:44.208Z,86.16
2023-04-15T20:34:42.209Z,86.13
2023-04-15T20:38:40.252Z,86.12
2023-04-15T20:42:38.215Z,86.11
2023-04-15T20:46:36.260Z,85.81
2023-04-15T20:50:34.263Z,85.43
2023-04-15T20:54:32.230Z,85.71
2023-04-15T20:58:30.162Z,85.40
2023-04-15T21:02:28.416Z,85.02
2023-04-15T21:06:26.165Z,85.68
2023-04-15T21:10:24.159Z,85.80
2023-04-15T21:14:22.145Z,85.76
2023-04-15T21:18:20.162Z,85.73
2023-04-15T21:22:18.162Z,85.85
2023-04-15T21:26:16.207Z,85.85
2023-04-15T21:30:14.197Z,85.86
2023-04-15T21:34:12.165Z,85.85
2023-04-15T21:38:10.117Z,85.71
2023-04-15T21:42:08.164Z,85.50
2023-04-15T21:46:22.838Z,85.30
2023-04-15T21:50:23.153Z,84.92
2023-04-15T21:54:21.213Z,84.78
2023-04-15T21:58:19.059Z,84.50
2023-04-15T22:02:17.209Z,84.32
2023-04-15T22:06:16.172Z,84.21
2023-04-15T22:10:14.112Z,83.95
2023-04-15T22:14:13.016Z,83.88
2023-04-15T22:18:11.091Z,83.79
2023-04-15T22:22:09.058Z,83.93
2023-04-15T22:26:07.050Z,83.93
2023-04-15T22:30:05.034Z,84.02
2023-04-15T22:34:03.317Z,84.19
2023-04-15T22:38:01.124Z,84.19
2023-04-15T22:42:00.028Z,84.32
2023-04-15T22:46:04.032Z,84.07
2023-04-15T22:50:01.985Z,84.55
2023-04-15T22:54:00.032Z,84.83
2023-04-15T22:57:59.974Z,85.03
2023-04-15T23:01:58.160Z,85.23
2023-04-15T23:05:56.028Z,85.41
2023-04-15T23:09:53.987Z,85.19
2023-04-15T23:13:52.043Z,85.36
2023-04-15T23:17:50.106Z,85.51
2023-04-15T23:21:48.012Z,85.75
2023-04-15T23:25:45.930Z,86.07
2023-04-15T23:29:44.788Z,86.47
2023-04-15T23:33:44.945Z,86.81
2023-04-15T23:37:44.982Z,87.04
2023-04-15T23:41:43.015Z,87.38
2023-04-15T23:45:41.010Z,87.70
2023-04-15T23:49:38.924Z,87.99
2023-04-15T23:53:37.947Z,88.31
2023-04-15T23:57:35.886Z,88.62
